Fleetwood, United Kingdom
Current Conditions -  °F | °C
As of 1:50 PM on Monday 20 Oct 2014 (Local Time) from EGGP Reporting Station
Scattered Clouds Scattered Clouds  
Wind Chill: 59°   Ceiling: Unl
Heat Index: 59°   Visibility: 6mi
Dew Point: 50°   Wind: 16mph
Humidity: 72%   Direction: 240°WSW
Pressure: 29.88"   Gusts: NA
Location:  53.92°N, 3.01°W
Report Text: EGGP 201250Z 24014KT 9999 FEW029 SCT035 15/10 Q1012
Loading
Personal Weather Stations






























Interactive Weather Map New forecast layout! Learn more

10-Day Weather Forecast

Advertisements
Track Severe Weather on mobile